sensor_id;sensor_type;location;lat;lon;timestamp;pressure;altitude;pressure_sealevel;temperature;humidity
7052;BME280;3567;52.444;13.556;2022-09-14T00:02:16;100380.41;;;12.75;100.00
7052;BME280;3567;52.444;13.556;2022-09-14T00:04:41;100375.56;;;12.77;100.00
7052;BME280;3567;52.444;13.556;2022-09-14T00:07:07;100376.72;;;12.81;100.00
7052;BME280;3567;52.444;13.556;2022-09-14T00:09:33;100368.16;;;12.84;100.00
7052;BME280;3567;52.444;13.556;2022-09-14T00:11:58;100368.22;;;12.89;100.00
7052;BME280;3567;52.444;13.556;2022-09-14T00:14:24;100369.31;;;12.93;100.00
7052;BME280;3567;52.444;13.556;2022-09-14T00:16:49;100371.75;;;12.95;100.00
7052;BME280;3567;52.444;13.556;2022-09-14T00:19:21;100368.81;;;12.96;100.00
7052;BME280;3567;52.444;13.556;2022-09-14T00:21:55;100358.56;;;12.93;100.00
7052;BME280;3567;52.444;13.556;2022-09-14T00:24:21;100354.78;;;12.89;100.00
7052;BME280;3567;52.444;13.556;2022-09-14T00:26:47;100356.34;;;12.85;100.00
7052;BME280;3567;52.444;13.556;2022-09-14T00:29:13;100354.13;;;12.82;100.00
7052;BME280;3567;52.444;13.556;2022-09-14T00:31:39;100352.53;;;12.81;100.00
7052;BME280;3567;52.444;13.556;2022-09-14T00:34:06;100357.63;;;12.82;100.00
7052;BME280;3567;52.444;13.556;2022-09-14T00:36:37;100344.72;;;12.79;100.00
7052;BME280;3567;52.444;13.556;2022-09-14T00:39:02;100348.16;;;12.75;100.00
7052;BME280;3567;52.444;13.556;2022-09-14T00:41:31;100340.03;;;12.70;100.00
7052;BME280;3567;52.444;13.556;2022-09-14T00:46:37;100329.91;;;12.55;100.00
7052;BME280;3567;52.444;13.556;2022-09-14T00:49:06;100322.53;;;12.45;100.00
7052;BME280;3567;52.444;13.556;2022-09-14T00:51:33;100333.22;;;12.40;100.00
7052;BME280;3567;52.444;13.556;2022-09-14T00:54:01;100328.31;;;12.32;100.00
7052;BME280;3567;52.444;13.556;2022-09-14T00:56:27;100318.56;;;12.26;100.00
7052;BME280;3567;52.444;13.556;2022-09-14T00:58:54;100320.63;;;12.19;100.00
7052;BME280;3567;52.444;13.556;2022-09-14T01:01:21;100315.44;;;12.12;100.00
7052;BME280;3567;52.444;13.556;2022-09-14T01:03:47;100325.84;;;12.09;100.00
7052;BME280;3567;52.444;13.556;2022-09-14T01:09:31;100322.47;;;11.96;100.00
7052;BME280;3567;52.444;13.556;2022-09-14T01:18:07;100316.28;;;11.79;100.00
7052;BME280;3567;52.444;13.556;2022-09-14T01:20:46;100311.13;;;11.72;100.00
7052;BME280;3567;52.444;13.556;2022-09-14T01:28:40;100320.06;;;11.61;100.00
7052;BME280;3567;52.444;13.556;2022-09-14T01:31:42;100318.94;;;11.57;100.00
7052;BME280;3567;52.444;13.556;2022-09-14T01:34:25;100325.03;;;11.52;100.00
7052;BME280;3567;52.444;13.556;2022-09-14T01:36:59;100315.84;;;11.48;100.00
7052;BME280;3567;52.444;13.556;2022-09-14T01:39:30;100313.66;;;11.45;100.00
7052;BME280;3567;52.444;13.556;2022-09-14T01:41:57;100307.72;;;11.43;100.00
7052;BME280;3567;52.444;13.556;2022-09-14T01:44:31;100314.38;;;11.41;100.00
7052;BME280;3567;52.444;13.556;2022-09-14T01:49:55;100315.19;;;11.41;100.00
7052;BME280;3567;52.444;13.556;2022-09-14T01:52:26;100315.19;;;11.41;100.00
7052;BME280;3567;52.444;13.556;2022-09-14T01:55:29;100311.78;;;11.46;100.00
7052;BME280;3567;52.444;13.556;2022-09-14T01:58:03;100313.22;;;11.53;100.00
7052;BME280;3567;52.444;13.556;2022-09-14T02:00:31;100319.50;;;11.59;100.00
7052;BME280;3567;52.444;13.556;2022-09-14T02:03:03;100312.84;;;11.62;100.00
7052;BME280;3567;52.444;13.556;2022-09-14T02:05:41;100312.91;;;11.67;100.00
7052;BME280;3567;52.444;13.556;2022-09-14T02:08:10;100313.22;;;11.70;100.00
7052;BME280;3567;52.444;13.556;2022-09-14T02:10:36;100318.34;;;11.72;100.00
7052;BME280;3567;52.444;13.556;2022-09-14T02:13:02;100318.09;;;11.73;100.00
7052;BME280;3567;52.444;13.556;2022-09-14T02:15:27;100310.94;;;11.79;100.00
7052;BME280;3567;52.444;13.556;2022-09-14T02:17:53;100306.22;;;11.86;100.00
7052;BME280;3567;52.444;13.556;2022-09-14T02:20:38;100308.16;;;11.91;100.00
7052;BME280;3567;52.444;13.556;2022-09-14T02:23:05;100305.22;;;11.92;100.00
7052;BME280;3567;52.444;13.556;2022-09-14T02:25:31;100300.94;;;11.91;100.00
7052;BME280;3567;52.444;13.556;2022-09-14T02:27:56;100304.75;;;11.95;100.00
7052;BME280;3567;52.444;13.556;2022-09-14T02:30:22;100305.88;;;11.99;100.00
7052;BME280;3567;52.444;13.556;2022-09-14T02:36:10;100291.94;;;12.02;100.00
7052;BME280;3567;52.444;13.556;2022-09-14T02:38:33;100297.56;;;12.01;100.00
7052;BME280;3567;52.444;13.556;2022-09-14T02:41:25;100295.63;;;11.96;100.00
7052;BME280;3567;52.444;13.556;2022-09-14T02:44:34;100298.25;;;11.91;100.00
7052;BME280;3567;52.444;13.556;2022-09-14T02:47:16;100291.75;;;11.87;100.00
7052;BME280;3567;52.444;13.556;2022-09-14T02:50:35;100293.88;;;11.85;100.00
7052;BME280;3567;52.444;13.556;2022-09-14T02:53:09;100289.22;;;11.80;100.00
7052;BME280;3567;52.444;13.556;2022-09-14T02:55:41;100294.22;;;11.72;100.00
7052;BME280;3567;52.444;13.556;2022-09-14T02:58:13;100294.59;;;11.64;100.00
7052;BME280;3567;52.444;13.556;2022-09-14T03:00:58;100295.00;;;11.55;100.00
7052;BME280;3567;52.444;13.556;2022-09-14T03:03:24;100294.38;;;11.48;100.00
7052;BME280;3567;52.444;13.556;2022-09-14T03:05:49;100292.69;;;11.42;100.00
7052;BME280;3567;52.444;13.556;2022-09-14T03:08:15;100291.53;;;11.38;100.00
7052;BME280;3567;52.444;13.556;2022-09-14T03:10:42;100296.00;;;11.33;100.00
7052;BME280;3567;52.444;13.556;2022-09-14T03:13:07;100294.38;;;11.32;100.00
7052;BME280;3567;52.444;13.556;2022-09-14T03:15:33;100291.16;;;11.30;100.00
7052;BME280;3567;52.444;13.556;2022-09-14T03:17:58;100297.00;;;11.26;100.00
7052;BME280;3567;52.444;13.556;2022-09-14T03:20:26;100295.94;;;11.27;100.00
7052;BME280;3567;52.444;13.556;2022-09-14T03:22:52;100302.59;;;11.25;100.00
7052;BME280;3567;52.444;13.556;2022-09-14T03:25:18;100297.47;;;11.23;100.00
7052;BME280;3567;52.444;13.556;2022-09-14T03:27:51;100301.94;;;11.18;100.00
7052;BME280;3567;52.444;13.556;2022-09-14T03:30:18;100295.75;;;11.17;100.00
7052;BME280;3567;52.444;13.556;2022-09-14T03:32:44;100305.13;;;11.15;100.00
7052;BME280;3567;52.444;13.556;2022-09-14T03:35:10;100296.47;;;11.13;100.00
7052;BME280;3567;52.444;13.556;2022-09-14T03:37:37;100293.25;;;11.11;100.00
7052;BME280;3567;52.444;13.556;2022-09-14T03:40:04;100291.63;;;11.10;100.00
7052;BME280;3567;52.444;13.556;2022-09-14T03:42:30;100284.06;;;11.07;100.00
7052;BME280;3567;52.444;13.556;2022-09-14T03:44:56;100277.31;;;11.04;100.00
7052;BME280;3567;52.444;13.556;2022-09-14T03:47:22;100281.28;;;11.01;100.00
7052;BME280;3567;52.444;13.556;2022-09-14T03:49:47;100282.00;;;10.97;100.00
7052;BME280;3567;52.444;13.556;2022-09-14T03:52:12;100278.78;;;10.95;100.00
7052;BME280;3567;52.444;13.556;2022-09-14T03:54:38;100282.97;;;10.91;100.00
7052;BME280;3567;52.444;13.556;2022-09-14T03:57:03;100286.16;;;10.88;100.00
7052;BME280;3567;52.444;13.556;2022-09-14T03:59:29;100283.69;;;10.86;100.00
7052;BME280;3567;52.444;13.556;2022-09-14T04:01:54;100279.91;;;10.82;100.00
7052;BME280;3567;52.444;13.556;2022-09-14T04:04:20;100274.75;;;10.81;100.00
7052;BME280;3567;52.444;13.556;2022-09-14T04:06:45;100276.31;;;10.77;100.00
7052;BME280;3567;52.444;13.556;2022-09-14T04:09:11;100270.16;;;10.76;100.00
7052;BME280;3567;52.444;13.556;2022-09-14T04:11:37;100281.91;;;10.75;100.00
7052;BME280;3567;52.444;13.556;2022-09-14T04:14:03;100275.41;;;10.71;100.00
7052;BME280;3567;52.444;13.556;2022-09-14T04:16:29;100288.81;;;10.71;100.00
7052;BME280;3567;52.444;13.556;2022-09-14T04:18:55;100288.47;;;10.67;100.00
7052;BME280;3567;52.444;13.556;2022-09-14T04:21:23;100291.41;;;10.66;100.00
7052;BME280;3567;52.444;13.556;2022-09-14T04:23:52;100292.41;;;10.65;100.00
7052;BME280;3567;52.444;13.556;2022-09-14T04:26:19;100287.31;;;10.63;100.00
7052;BME280;3567;52.444;13.556;2022-09-14T04:28:44;100277.66;;;10.62;100.00
7052;BME280;3567;52.444;13.556;2022-09-14T04:31:10;100268.81;;;10.62;100.00
7052;BME280;3567;52.444;13.556;2022-09-14T04:33:37;100267.75;;;10.63;100.00
7052;BME280;3567;52.444;13.556;2022-09-14T04:36:08;100268.22;;;10.60;100.00
7052;BME280;3567;52.444;13.556;2022-09-14T04:38:35;100266.59;;;10.59;100.00
7052;BME280;3567;52.444;13.556;2022-09-14T04:41:08;100269.78;;;10.56;100.00
7052;BME280;3567;52.444;13.556;2022-09-14T04:43:34;100270.59;;;10.56;100.00
7052;BME280;3567;52.444;13.556;2022-09-14T04:46:04;100281.31;;;10.56;100.00
7052;BME280;3567;52.444;13.556;2022-09-14T04:48:30;100282.66;;;10.59;100.00
7052;BME280;3567;52.444;13.556;2022-09-14T04:51:07;100271.75;;;10.60;100.00
7052;BME280;3567;52.444;13.556;2022-09-14T04:53:35;100265.06;;;10.63;100.00
7052;BME280;3567;52.444;13.556;2022-09-14T04:56:03;100269.16;;;10.65;100.00
7052;BME280;3567;52.444;13.556;2022-09-14T04:58:28;100259.81;;;10.68;100.00
7052;BME280;3567;52.444;13.556;2022-09-14T05:01:00;100259.56;;;10.69;100.00
7052;BME280;3567;52.444;13.556;2022-09-14T05:03:25;100262.84;;;10.71;100.00
7052;BME280;3567;52.444;13.556;2022-09-14T05:05:51;100257.22;;;10.73;100.00
7052;BME280;3567;52.444;13.556;2022-09-14T05:08:16;100260.97;;;10.72;100.00
7052;BME280;3567;52.444;13.556;2022-09-14T05:10:41;100248.13;;;10.74;100.00
7052;BME280;3567;52.444;13.556;2022-09-14T05:13:07;100255.69;;;10.77;100.00
7052;BME280;3567;52.444;13.556;2022-09-14T05:15:32;100251.97;;;10.78;100.00
7052;BME280;3567;52.444;13.556;2022-09-14T05:17:58;100252.28;;;10.82;100.00
7052;BME280;3567;52.444;13.556;2022-09-14T05:20:23;100252.59;;;10.85;100.00
7052;BME280;3567;52.444;13.556;2022-09-14T05:22:49;100246.78;;;10.88;100.00
7052;BME280;3567;52.444;13.556;2022-09-14T05:25:15;100253.28;;;10.92;100.00
7052;BME280;3567;52.444;13.556;2022-09-14T05:27:40;100263.84;;;10.99;100.00
7052;BME280;3567;52.444;13.556;2022-09-14T05:30:06;100263.19;;;11.09;100.00
7052;BME280;3567;52.444;13.556;2022-09-14T05:32:32;100258.09;;;11.24;100.00
7052;BME280;3567;52.444;13.556;2022-09-14T05:34:57;100248.06;;;11.36;100.00
7052;BME280;3567;52.444;13.556;2022-09-14T05:37:22;100246.34;;;11.47;100.00
7052;BME280;3567;52.444;13.556;2022-09-14T05:39:48;100251.06;;;11.57;100.00
7052;BME280;3567;52.444;13.556;2022-09-14T05:42:13;100268.34;;;11.66;100.00
7052;BME280;3567;52.444;13.556;2022-09-14T05:44:38;100272.22;;;11.75;100.00
7052;BME280;3567;52.444;13.556;2022-09-14T05:47:04;100263.00;;;11.83;100.00
7052;BME280;3567;52.444;13.556;2022-09-14T05:49:29;100263.94;;;11.93;100.00
7052;BME280;3567;52.444;13.556;2022-09-14T05:51:54;100247.63;;;12.00;100.00
7052;BME280;3567;52.444;13.556;2022-09-14T05:54:20;100258.72;;;12.09;100.00
7052;BME280;3567;52.444;13.556;2022-09-14T05:56:45;100255.06;;;12.15;100.00
7052;BME280;3567;52.444;13.556;2022-09-14T05:59:10;100251.94;;;12.23;100.00
7052;BME280;3567;52.444;13.556;2022-09-14T06:01:36;100257.91;;;12.30;100.00
7052;BME280;3567;52.444;13.556;2022-09-14T06:04:02;100262.03;;;12.38;100.00
7052;BME280;3567;52.444;13.556;2022-09-14T06:06:28;100252.97;;;12.44;100.00
7052;BME280;3567;52.444;13.556;2022-09-14T06:08:54;100244.16;;;12.48;100.00
7052;BME280;3567;52.444;13.556;2022-09-14T06:11:27;100250.13;;;12.55;100.00
7052;BME280;3567;52.444;13.556;2022-09-14T06:13:53;100247.50;;;12.61;100.00
7052;BME280;3567;52.444;13.556;2022-09-14T06:16:21;100232.50;;;12.65;100.00
7052;BME280;3567;52.444;13.556;2022-09-14T06:18:47;100236.84;;;12.71;100.00
7052;BME280;3567;52.444;13.556;2022-09-14T06:21:14;100240.13;;;12.78;100.00
7052;BME280;3567;52.444;13.556;2022-09-14T06:23:41;100235.88;;;12.82;100.00
7052;BME280;3567;52.444;13.556;2022-09-14T06:26:07;100234.59;;;12.90;100.00
7052;BME280;3567;52.444;13.556;2022-09-14T06:28:33;100235.47;;;12.95;100.00
7052;BME280;3567;52.444;13.556;2022-09-14T06:30:59;100236.59;;;13.04;100.00
7052;BME280;3567;52.444;13.556;2022-09-14T06:33:27;100228.56;;;13.09;100.00
7052;BME280;3567;52.444;13.556;2022-09-14T06:35:57;100231.88;;;13.17;100.00
7052;BME280;3567;52.444;13.556;2022-09-14T06:38:23;100231.66;;;13.23;100.00
7052;BME280;3567;52.444;13.556;2022-09-14T06:40:55;100239.50;;;13.30;100.00
7052;BME280;3567;52.444;13.556;2022-09-14T06:43:22;100230.66;;;13.34;100.00
7052;BME280;3567;52.444;13.556;2022-09-14T06:46:00;100242.81;;;13.42;100.00
7052;BME280;3567;52.444;13.556;2022-09-14T06:48:28;100238.03;;;13.49;100.00
7052;BME280;3567;52.444;13.556;2022-09-14T06:50:54;100235.91;;;13.56;100.00
7052;BME280;3567;52.444;13.556;2022-09-14T06:53:20;100235.97;;;13.67;100.00
7052;BME280;3567;52.444;13.556;2022-09-14T06:55:45;100244.63;;;13.79;100.00
7052;BME280;3567;52.444;13.556;2022-09-14T06:58:11;100241.19;;;13.88;100.00
7052;BME280;3567;52.444;13.556;2022-09-14T07:00:36;100242.59;;;14.01;100.00
7052;BME280;3567;52.444;13.556;2022-09-14T07:03:02;100230.25;;;14.10;100.00
7052;BME280;3567;52.444;13.556;2022-09-14T07:05:28;100235.66;;;14.21;100.00
7052;BME280;3567;52.444;13.556;2022-09-14T07:07:55;100240.28;;;14.30;100.00
7052;BME280;3567;52.444;13.556;2022-09-14T07:10:21;100241.38;;;14.39;100.00
7052;BME280;3567;52.444;13.556;2022-09-14T07:12:46;100240.34;;;14.51;100.00
7052;BME280;3567;52.444;13.556;2022-09-14T07:15:12;100234.19;;;14.60;100.00
7052;BME280;3567;52.444;13.556;2022-09-14T07:17:37;100241.72;;;14.68;100.00
7052;BME280;3567;52.444;13.556;2022-09-14T07:20:04;100246.88;;;14.70;100.00
7052;BME280;3567;52.444;13.556;2022-09-14T07:22:34;100241.22;;;14.77;100.00
7052;BME280;3567;52.444;13.556;2022-09-14T07:25:00;100237.44;;;14.78;100.00
7052;BME280;3567;52.444;13.556;2022-09-14T07:27:25;100241.47;;;14.80;100.00
7052;BME280;3567;52.444;13.556;2022-09-14T07:29:51;100247.94;;;14.84;100.00
7052;BME280;3567;52.444;13.556;2022-09-14T07:32:16;100242.03;;;14.92;100.00
7052;BME280;3567;52.444;13.556;2022-09-14T07:34:42;100238.53;;;15.02;100.00
7052;BME280;3567;52.444;13.556;2022-09-14T07:37:08;100237.69;;;15.12;100.00
7052;BME280;3567;52.444;13.556;2022-09-14T07:39:33;100237.69;;;15.22;100.00
7052;BME280;3567;52.444;13.556;2022-09-14T07:41:58;100236.88;;;15.32;100.00
7052;BME280;3567;52.444;13.556;2022-09-14T07:44:24;100230.66;;;15.41;100.00
7052;BME280;3567;52.444;13.556;2022-09-14T07:46:49;100221.19;;;15.49;100.00
7052;BME280;3567;52.444;13.556;2022-09-14T07:49:15;100232.25;;;15.53;100.00
7052;BME280;3567;52.444;13.556;2022-09-14T07:51:41;100239.25;;;15.59;100.00
7052;BME280;3567;52.444;13.556;2022-09-14T07:54:10;100237.38;;;15.69;100.00
7052;BME280;3567;52.444;13.556;2022-09-14T07:56:36;100238.94;;;15.86;99.82
7052;BME280;3567;52.444;13.556;2022-09-14T07:59:02;100241.06;;;15.99;99.48
7052;BME280;3567;52.444;13.556;2022-09-14T08:01:29;100238.00;;;16.16;98.93
7052;BME280;3567;52.444;13.556;2022-09-14T08:03:55;100238.19;;;16.30;97.35
7052;BME280;3567;52.444;13.556;2022-09-14T08:06:24;100240.81;;;16.45;97.36
7052;BME280;3567;52.444;13.556;2022-09-14T08:08:52;100248.31;;;16.58;96.11
7052;BME280;3567;52.444;13.556;2022-09-14T08:11:29;100246.66;;;16.72;95.94
7052;BME280;3567;52.444;13.556;2022-09-14T08:14:00;100241.91;;;16.88;95.26
7052;BME280;3567;52.444;13.556;2022-09-14T08:16:28;100244.88;;;16.92;94.72
7052;BME280;3567;52.444;13.556;2022-09-14T08:18:56;100247.03;;;16.95;93.99
7052;BME280;3567;52.444;13.556;2022-09-14T08:21:22;100239.88;;;17.04;93.38
7052;BME280;3567;52.444;13.556;2022-09-14T08:23:48;100239.00;;;17.14;92.32
7052;BME280;3567;52.444;13.556;2022-09-14T08:26:19;100240.78;;;17.28;91.35
7052;BME280;3567;52.444;13.556;2022-09-14T08:28:45;100236.31;;;17.43;91.85
7052;BME280;3567;52.444;13.556;2022-09-14T08:31:12;100248.53;;;17.64;90.38
7052;BME280;3567;52.444;13.556;2022-09-14T08:33:44;100245.59;;;17.90;88.26
7052;BME280;3567;52.444;13.556;2022-09-14T08:36:12;100234.94;;;18.17;87.68
7052;BME280;3567;52.444;13.556;2022-09-14T08:38:38;100228.16;;;18.39;85.89
7052;BME280;3567;52.444;13.556;2022-09-14T08:43:44;100228.16;;;18.76;84.41
7052;BME280;3567;52.444;13.556;2022-09-14T08:46:19;100226.03;;;19.06;81.53
7052;BME280;3567;52.444;13.556;2022-09-14T08:48:47;100226.41;;;19.32;81.04
7052;BME280;3567;52.444;13.556;2022-09-14T08:51:14;100226.88;;;19.67;81.06
7052;BME280;3567;52.444;13.556;2022-09-14T08:53:41;100229.69;;;20.03;77.44
7052;BME280;3567;52.444;13.556;2022-09-14T08:56:12;100228.88;;;20.16;74.81
7052;BME280;3567;52.444;13.556;2022-09-14T09:07:14;100225.53;;;20.91;69.61
7052;BME280;3567;52.444;13.556;2022-09-14T09:09:49;100215.41;;;20.83;68.63
7052;BME280;3567;52.444;13.556;2022-09-14T09:12:26;100208.03;;;20.61;66.64
7052;BME280;3567;52.444;13.556;2022-09-14T09:14:56;100212.69;;;20.33;66.53
7052;BME280;3567;52.444;13.556;2022-09-14T09:17:37;100214.09;;;19.95;67.08
7052;BME280;3567;52.444;13.556;2022-09-14T09:20:12;100218.84;;;19.61;67.80
7052;BME280;3567;52.444;13.556;2022-09-14T09:22:41;100215.66;;;19.41;68.67
7052;BME280;3567;52.444;13.556;2022-09-14T09:25:44;100218.34;;;19.27;70.55
7052;BME280;3567;52.444;13.556;2022-09-14T09:28:13;100214.19;;;19.16;70.83
7052;BME280;3567;52.444;13.556;2022-09-14T09:30:40;100211.66;;;19.05;71.16
7052;BME280;3567;52.444;13.556;2022-09-14T09:33:14;100208.22;;;19.00;71.95
7052;BME280;3567;52.444;13.556;2022-09-14T09:35:41;100214.34;;;18.92;71.90
7052;BME280;3567;52.444;13.556;2022-09-14T09:38:21;100211.56;;;18.97;72.18
7052;BME280;3567;52.444;13.556;2022-09-14T09:41:00;100213.06;;;19.03;73.59
7052;BME280;3567;52.444;13.556;2022-09-14T09:43:29;100209.91;;;18.96;72.21
7052;BME280;3567;52.444;13.556;2022-09-14T09:46:03;100195.28;;;18.78;70.56
7052;BME280;3567;52.444;13.556;2022-09-14T09:48:43;100198.09;;;18.73;69.99
7052;BME280;3567;52.444;13.556;2022-09-14T09:51:14;100196.72;;;18.75;70.69
7052;BME280;3567;52.444;13.556;2022-09-14T09:53:55;100196.97;;;19.06;71.78
7052;BME280;3567;52.444;13.556;2022-09-14T09:57:03;100198.16;;;19.47;70.27
7052;BME280;3567;52.444;13.556;2022-09-14T09:59:32;100191.03;;;19.51;70.73
7052;BME280;3567;52.444;13.556;2022-09-14T10:05:05;100191.94;;;19.46;70.98
7052;BME280;3567;52.444;13.556;2022-09-14T10:10:15;100180.66;;;19.39;70.95
7052;BME280;3567;52.444;13.556;2022-09-14T10:12:47;100189.19;;;19.32;70.62
7052;BME280;3567;52.444;13.556;2022-09-14T10:20:25;100184.31;;;19.02;68.77
7052;BME280;3567;52.444;13.556;2022-09-14T10:22:51;100185.78;;;18.94;68.65
7052;BME280;3567;52.444;13.556;2022-09-14T10:27:57;100176.63;;;18.90;69.04
7052;BME280;3567;52.444;13.556;2022-09-14T10:30:26;100176.06;;;18.93;68.41
7052;BME280;3567;52.444;13.556;2022-09-14T10:33:08;100175.25;;;18.93;68.69
7052;BME280;3567;52.444;13.556;2022-09-14T10:38:12;100171.28;;;19.18;68.54
7052;BME280;3567;52.444;13.556;2022-09-14T10:40:42;100180.66;;;19.39;68.42
7052;BME280;3567;52.444;13.556;2022-09-14T10:43:18;100177.28;;;19.61;68.16
7052;BME280;3567;52.444;13.556;2022-09-14T10:45:49;100166.91;;;19.77;67.21
7052;BME280;3567;52.444;13.556;2022-09-14T10:48:26;100163.97;;;19.73;64.84
7052;BME280;3567;52.444;13.556;2022-09-14T10:53:31;100151.59;;;19.67;65.18
7052;BME280;3567;52.444;13.556;2022-09-14T10:56:10;100157.34;;;19.66;63.98
7052;BME280;3567;52.444;13.556;2022-09-14T11:07:30;100152.41;;;20.54;63.91
7052;BME280;3567;52.444;13.556;2022-09-14T11:25:45;100153.72;;;21.41;58.07
7052;BME280;3567;52.444;13.556;2022-09-14T11:28:22;100152.56;;;21.33;60.09
7052;BME280;3567;52.444;13.556;2022-09-14T11:30:54;100145.53;;;21.32;60.95
7052;BME280;3567;52.444;13.556;2022-09-14T11:33:39;100155.50;;;21.14;58.50
7052;BME280;3567;52.444;13.556;2022-09-14T11:36:28;100163.34;;;20.85;58.04
7052;BME280;3567;52.444;13.556;2022-09-14T11:39:11;100156.69;;;20.69;59.06
7052;BME280;3567;52.444;13.556;2022-09-14T11:41:50;100155.84;;;20.90;59.30
7052;BME280;3567;52.444;13.556;2022-09-14T11:44:27;100158.41;;;21.18;60.27
7052;BME280;3567;52.444;13.556;2022-09-14T11:47:02;100156.97;;;21.52;59.08
7052;BME280;3567;52.444;13.556;2022-09-14T11:52:12;100149.97;;;21.77;58.78
7052;BME280;3567;52.444;13.556;2022-09-14T11:54:39;100152.81;;;22.29;57.40
7052;BME280;3567;52.444;13.556;2022-09-14T11:57:05;100139.41;;;22.79;56.44
7052;BME280;3567;52.444;13.556;2022-09-14T12:12:40;100129.06;;;22.29;53.45
7052;BME280;3567;52.444;13.556;2022-09-14T12:17:52;100147.03;;;21.47;58.40
7052;BME280;3567;52.444;13.556;2022-09-14T12:36:10;100127.97;;;20.85;60.97
7052;BME280;3567;52.444;13.556;2022-09-14T12:43:46;100126.44;;;20.48;60.08
7052;BME280;3567;52.444;13.556;2022-09-14T12:53:43;100108.97;;;20.26;61.80
7052;BME280;3567;52.444;13.556;2022-09-14T12:56:25;100120.75;;;20.35;61.35
7052;BME280;3567;52.444;13.556;2022-09-14T13:01:47;100116.09;;;20.81;61.30
7052;BME280;3567;52.444;13.556;2022-09-14T13:04:23;100110.06;;;20.92;60.45
7052;BME280;3567;52.444;13.556;2022-09-14T13:06:50;100104.06;;;21.13;60.33
7052;BME280;3567;52.444;13.556;2022-09-14T13:09:23;100113.75;;;21.28;58.37
7052;BME280;3567;52.444;13.556;2022-09-14T13:11:56;100100.84;;;21.42;58.58
7052;BME280;3567;52.444;13.556;2022-09-14T13:14:25;100090.59;;;21.48;58.54
7052;BME280;3567;52.444;13.556;2022-09-14T13:16:52;100081.59;;;21.38;58.32
7052;BME280;3567;52.444;13.556;2022-09-14T13:19:32;100076.56;;;21.23;59.06
7052;BME280;3567;52.444;13.556;2022-09-14T13:22:00;100072.94;;;20.97;59.12
7052;BME280;3567;52.444;13.556;2022-09-14T13:24:27;100063.97;;;20.65;60.25
7052;BME280;3567;52.444;13.556;2022-09-14T13:26:55;100065.00;;;20.47;61.28
7052;BME280;3567;52.444;13.556;2022-09-14T13:29:22;100061.38;;;20.37;61.63
7052;BME280;3567;52.444;13.556;2022-09-14T13:31:48;100062.63;;;20.31;63.30
7052;BME280;3567;52.444;13.556;2022-09-14T13:34:19;100058.44;;;20.25;63.99
7052;BME280;3567;52.444;13.556;2022-09-14T13:36:47;100059.47;;;20.15;63.07
7052;BME280;3567;52.444;13.556;2022-09-14T13:39:28;100071.03;;;19.99;62.91
7052;BME280;3567;52.444;13.556;2022-09-14T13:41:55;100063.69;;;19.85;63.53
7052;BME280;3567;52.444;13.556;2022-09-14T13:44:33;100060.59;;;19.78;64.37
7052;BME280;3567;52.444;13.556;2022-09-14T13:47:02;100053.16;;;19.70;64.02
7052;BME280;3567;52.444;13.556;2022-09-14T13:49:28;100058.72;;;19.65;65.53
7052;BME280;3567;52.444;13.556;2022-09-14T13:54:53;100052.78;;;19.49;66.12
7052;BME280;3567;52.444;13.556;2022-09-14T13:57:21;100054.78;;;19.44;66.09
7052;BME280;3567;52.444;13.556;2022-09-14T14:02:34;100064.28;;;19.19;67.62
7052;BME280;3567;52.444;13.556;2022-09-14T14:05:00;100057.94;;;19.09;66.81
7052;BME280;3567;52.444;13.556;2022-09-14T14:07:31;100052.72;;;18.99;66.38
7052;BME280;3567;52.444;13.556;2022-09-14T14:09:58;100045.19;;;18.96;66.71
7052;BME280;3567;52.444;13.556;2022-09-14T14:12:30;100048.09;;;19.00;68.44
7052;BME280;3567;52.444;13.556;2022-09-14T14:14:58;100035.13;;;18.97;68.81
7052;BME280;3567;52.444;13.556;2022-09-14T14:17:31;100033.31;;;18.92;68.11
7052;BME280;3567;52.444;13.556;2022-09-14T14:22:56;100029.91;;;18.87;68.37
7052;BME280;3567;52.444;13.556;2022-09-14T14:25:45;100031.59;;;18.82;68.49
7052;BME280;3567;52.444;13.556;2022-09-14T14:28:21;100034.31;;;18.82;69.58
7052;BME280;3567;52.444;13.556;2022-09-14T14:30:47;100027.78;;;18.83;70.94
7052;BME280;3567;52.444;13.556;2022-09-14T14:33:14;100025.16;;;18.78;70.24
7052;BME280;3567;52.444;13.556;2022-09-14T14:35:42;100021.66;;;18.78;70.36
7052;BME280;3567;52.444;13.556;2022-09-14T14:38:08;100023.06;;;18.75;70.85
7052;BME280;3567;52.444;13.556;2022-09-14T14:40:34;100016.63;;;18.71;70.74
7052;BME280;3567;52.444;13.556;2022-09-14T14:43:00;100020.44;;;18.70;71.63
7052;BME280;3567;52.444;13.556;2022-09-14T14:45:28;100020.78;;;18.64;71.52
7052;BME280;3567;52.444;13.556;2022-09-14T14:47:56;100022.50;;;18.59;71.65
7052;BME280;3567;52.444;13.556;2022-09-14T14:50:28;100023.41;;;18.55;72.41
7052;BME280;3567;52.444;13.556;2022-09-14T14:52:54;100027.81;;;18.51;72.23
7052;BME280;3567;52.444;13.556;2022-09-14T14:55:21;100029.81;;;18.45;73.25
7052;BME280;3567;52.444;13.556;2022-09-14T14:57:47;100026.16;;;18.36;72.51
7052;BME280;3567;52.444;13.556;2022-09-14T15:00:18;100027.03;;;18.31;72.67
7052;BME280;3567;52.444;13.556;2022-09-14T15:02:44;100030.94;;;18.25;71.41
7052;BME280;3567;52.444;13.556;2022-09-14T15:05:10;100020.72;;;18.22;71.92
7052;BME280;3567;52.444;13.556;2022-09-14T15:07:35;100015.06;;;18.19;71.91
7052;BME280;3567;52.444;13.556;2022-09-14T15:10:01;100018.38;;;18.16;73.09
7052;BME280;3567;52.444;13.556;2022-09-14T15:12:27;100010.03;;;18.12;73.31
7052;BME280;3567;52.444;13.556;2022-09-14T15:14:52;100007.41;;;18.07;73.48
7052;BME280;3567;52.444;13.556;2022-09-14T15:17:17;100008.00;;;18.04;73.98
7052;BME280;3567;52.444;13.556;2022-09-14T15:19:43;100012.38;;;18.00;73.99
7052;BME280;3567;52.444;13.556;2022-09-14T15:22:09;100002.94;;;17.97;75.20
7052;BME280;3567;52.444;13.556;2022-09-14T15:24:34;100003.34;;;17.91;76.58